sensor_id;sensor_type;location;lat;lon;timestamp;P1;durP1;ratioP1;P2;durP2;ratioP2
76439;SDS011;65274;44.982;20.060;2024-02-28T01:10:02;28.97;;;15.67;;
76439;SDS011;65274;44.982;20.060;2024-02-28T01:12:38;40.47;;;17.83;;
76439;SDS011;65274;44.982;20.060;2024-02-28T01:15:13;27.95;;;14.93;;
76439;SDS011;65274;44.982;20.060;2024-02-28T01:20:29;26.95;;;14.55;;
76439;SDS011;65274;44.982;20.060;2024-02-28T01:23:27;25.10;;;12.88;;
76439;SDS011;65274;44.982;20.060;2024-02-28T01:25:55;20.90;;;12.02;;
76439;SDS011;65274;44.982;20.060;2024-02-28T01:28:39;26.50;;;13.73;;
76439;SDS011;65274;44.982;20.060;2024-02-28T01:31:06;32.42;;;18.48;;
76439;SDS011;65274;44.982;20.060;2024-02-28T01:33:36;37.58;;;19.52;;
76439;SDS011;65274;44.982;20.060;2024-02-28T01:36:28;27.05;;;14.27;;
76439;SDS011;65274;44.982;20.060;2024-02-28T01:39:26;27.73;;;15.07;;
76439;SDS011;65274;44.982;20.060;2024-02-28T01:45:13;23.48;;;12.00;;
76439;SDS011;65274;44.982;20.060;2024-02-28T01:47:43;25.50;;;13.10;;
76439;SDS011;65274;44.982;20.060;2024-02-28T01:50:11;20.63;;;12.90;;
76439;SDS011;65274;44.982;20.060;2024-02-28T01:52:40;24.70;;;12.05;;
76439;SDS011;65274;44.982;20.060;2024-02-28T01:55:08;22.67;;;11.52;;
76439;SDS011;65274;44.982;20.060;2024-02-28T01:57:36;19.85;;;11.68;;
76439;SDS011;65274;44.982;20.060;2024-02-28T02:00:06;20.65;;;11.35;;
76439;SDS011;65274;44.982;20.060;2024-02-28T02:02:35;21.10;;;12.43;;
76439;SDS011;65274;44.982;20.060;2024-02-28T02:05:03;18.98;;;10.85;;
76439;SDS011;65274;44.982;20.060;2024-02-28T02:07:31;18.42;;;11.10;;
76439;SDS011;65274;44.982;20.060;2024-02-28T02:09:57;21.70;;;12.40;;
76439;SDS011;65274;44.982;20.060;2024-02-28T02:12:23;22.20;;;11.45;;
76439;SDS011;65274;44.982;20.060;2024-02-28T02:14:51;23.45;;;12.85;;
76439;SDS011;65274;44.982;20.060;2024-02-28T02:17:24;22.58;;;13.13;;
76439;SDS011;65274;44.982;20.060;2024-02-28T02:19:52;23.30;;;11.32;;
76439;SDS011;65274;44.982;20.060;2024-02-28T02:22:25;20.45;;;11.77;;
76439;SDS011;65274;44.982;20.060;2024-02-28T02:24:55;22.35;;;12.05;;
76439;SDS011;65274;44.982;20.060;2024-02-28T02:27:24;20.30;;;11.50;;
76439;SDS011;65274;44.982;20.060;2024-02-28T02:32:19;24.15;;;13.75;;
76439;SDS011;65274;44.982;20.060;2024-02-28T02:34:47;22.13;;;12.20;;
76439;SDS011;65274;44.982;20.060;2024-02-28T02:37:15;29.40;;;14.95;;
76439;SDS011;65274;44.982;20.060;2024-02-28T02:39:43;15.73;;;10.25;;
76439;SDS011;65274;44.982;20.060;2024-02-28T02:42:09;26.10;;;10.75;;
76439;SDS011;65274;44.982;20.060;2024-02-28T02:44:38;20.13;;;10.40;;
76439;SDS011;65274;44.982;20.060;2024-02-28T02:47:05;21.55;;;11.05;;
76439;SDS011;65274;44.982;20.060;2024-02-28T02:49:32;20.75;;;10.82;;
76439;SDS011;65274;44.982;20.060;2024-02-28T02:52:00;19.70;;;11.05;;
76439;SDS011;65274;44.982;20.060;2024-02-28T02:54:27;20.83;;;11.57;;
76439;SDS011;65274;44.982;20.060;2024-02-28T02:56:54;21.15;;;11.05;;
76439;SDS011;65274;44.982;20.060;2024-02-28T02:59:25;22.42;;;11.65;;
76439;SDS011;65274;44.982;20.060;2024-02-28T03:01:51;24.67;;;11.13;;
76439;SDS011;65274;44.982;20.060;2024-02-28T03:04:19;21.70;;;10.65;;
76439;SDS011;65274;44.982;20.060;2024-02-28T03:06:46;24.48;;;12.25;;
76439;SDS011;65274;44.982;20.060;2024-02-28T03:09:13;18.92;;;11.05;;
76439;SDS011;65274;44.982;20.060;2024-02-28T03:11:40;21.00;;;11.45;;
76439;SDS011;65274;44.982;20.060;2024-02-28T03:14:09;23.88;;;12.93;;
76439;SDS011;65274;44.982;20.060;2024-02-28T03:16:40;23.63;;;13.52;;
76439;SDS011;65274;44.982;20.060;2024-02-28T03:19:07;22.75;;;12.77;;
76439;SDS011;65274;44.982;20.060;2024-02-28T03:21:34;23.88;;;12.77;;
76439;SDS011;65274;44.982;20.060;2024-02-28T03:24:04;19.48;;;11.75;;
76439;SDS011;65274;44.982;20.060;2024-02-28T03:26:31;18.75;;;10.00;;
76439;SDS011;65274;44.982;20.060;2024-02-28T03:28:57;21.42;;;12.27;;
76439;SDS011;65274;44.982;20.060;2024-02-28T03:31:24;22.95;;;13.20;;
76439;SDS011;65274;44.982;20.060;2024-02-28T03:33:55;25.17;;;14.43;;
76439;SDS011;65274;44.982;20.060;2024-02-28T03:36:22;25.73;;;13.60;;
76439;SDS011;65274;44.982;20.060;2024-02-28T03:38:49;19.30;;;11.55;;
76439;SDS011;65274;44.982;20.060;2024-02-28T03:41:17;23.07;;;13.77;;
76439;SDS011;65274;44.982;20.060;2024-02-28T03:43:44;26.70;;;12.93;;
76439;SDS011;65274;44.982;20.060;2024-02-28T03:46:11;24.08;;;12.65;;
76439;SDS011;65274;44.982;20.060;2024-02-28T03:48:37;23.17;;;12.43;;
76439;SDS011;65274;44.982;20.060;2024-02-28T03:51:03;25.05;;;13.10;;
76439;SDS011;65274;44.982;20.060;2024-02-28T03:53:30;26.13;;;12.05;;
76439;SDS011;65274;44.982;20.060;2024-02-28T03:55:56;22.02;;;13.20;;
76439;SDS011;65274;44.982;20.060;2024-02-28T03:58:22;21.77;;;12.25;;
76439;SDS011;65274;44.982;20.060;2024-02-28T04:00:48;25.40;;;13.45;;
76439;SDS011;65274;44.982;20.060;2024-02-28T04:03:15;24.67;;;13.77;;
76439;SDS011;65274;44.982;20.060;2024-02-28T04:05:41;25.83;;;13.73;;
76439;SDS011;65274;44.982;20.060;2024-02-28T04:08:08;21.60;;;12.25;;
76439;SDS011;65274;44.982;20.060;2024-02-28T04:10:34;26.65;;;13.73;;
76439;SDS011;65274;44.982;20.060;2024-02-28T04:13:00;26.85;;;12.63;;
76439;SDS011;65274;44.982;20.060;2024-02-28T04:15:26;26.83;;;12.30;;
76439;SDS011;65274;44.982;20.060;2024-02-28T04:17:53;26.08;;;12.57;;
76439;SDS011;65274;44.982;20.060;2024-02-28T04:20:19;26.10;;;13.50;;
76439;SDS011;65274;44.982;20.060;2024-02-28T04:22:45;34.03;;;17.05;;
76439;SDS011;65274;44.982;20.060;2024-02-28T04:25:11;20.67;;;12.80;;
76439;SDS011;65274;44.982;20.060;2024-02-28T04:27:38;26.00;;;13.57;;
76439;SDS011;65274;44.982;20.060;2024-02-28T04:30:04;26.63;;;14.07;;
76439;SDS011;65274;44.982;20.060;2024-02-28T04:32:30;21.77;;;12.48;;
76439;SDS011;65274;44.982;20.060;2024-02-28T04:34:57;26.58;;;12.10;;
76439;SDS011;65274;44.982;20.060;2024-02-28T04:37:23;22.92;;;12.73;;
76439;SDS011;65274;44.982;20.060;2024-02-28T04:39:49;22.73;;;14.38;;
76439;SDS011;65274;44.982;20.060;2024-02-28T04:42:15;20.50;;;12.45;;
76439;SDS011;65274;44.982;20.060;2024-02-28T04:44:42;22.45;;;13.25;;
76439;SDS011;65274;44.982;20.060;2024-02-28T04:47:08;24.38;;;13.60;;
76439;SDS011;65274;44.982;20.060;2024-02-28T04:49:37;26.70;;;13.57;;
76439;SDS011;65274;44.982;20.060;2024-02-28T04:52:06;31.77;;;14.07;;
76439;SDS011;65274;44.982;20.060;2024-02-28T04:54:32;24.20;;;13.75;;
76439;SDS011;65274;44.982;20.060;2024-02-28T04:56:59;24.77;;;13.57;;
76439;SDS011;65274;44.982;20.060;2024-02-28T04:59:25;24.20;;;12.57;;
76439;SDS011;65274;44.982;20.060;2024-02-28T05:01:51;27.42;;;13.88;;
76439;SDS011;65274;44.982;20.060;2024-02-28T05:04:18;24.48;;;12.75;;
76439;SDS011;65274;44.982;20.060;2024-02-28T05:06:44;26.02;;;13.55;;
76439;SDS011;65274;44.982;20.060;2024-02-28T05:09:10;22.92;;;13.43;;
76439;SDS011;65274;44.982;20.060;2024-02-28T05:11:36;28.83;;;14.50;;
76439;SDS011;65274;44.982;20.060;2024-02-28T05:14:02;26.73;;;12.57;;
76439;SDS011;65274;44.982;20.060;2024-02-28T05:16:28;26.63;;;13.95;;
76439;SDS011;65274;44.982;20.060;2024-02-28T05:18:54;22.48;;;13.00;;
76439;SDS011;65274;44.982;20.060;2024-02-28T05:21:21;26.67;;;13.35;;
76439;SDS011;65274;44.982;20.060;2024-02-28T05:23:48;22.73;;;12.98;;
76439;SDS011;65274;44.982;20.060;2024-02-28T05:26:14;31.85;;;13.55;;
76439;SDS011;65274;44.982;20.060;2024-02-28T05:28:40;25.85;;;13.70;;
76439;SDS011;65274;44.982;20.060;2024-02-28T05:33:45;24.02;;;13.10;;
76439;SDS011;65274;44.982;20.060;2024-02-28T05:36:11;24.23;;;13.95;;
76439;SDS011;65274;44.982;20.060;2024-02-28T05:38:37;25.73;;;14.63;;
76439;SDS011;65274;44.982;20.060;2024-02-28T05:41:03;25.10;;;14.07;;
76439;SDS011;65274;44.982;20.060;2024-02-28T05:43:29;31.67;;;14.18;;
76439;SDS011;65274;44.982;20.060;2024-02-28T05:45:55;27.52;;;14.73;;
76439;SDS011;65274;44.982;20.060;2024-02-28T05:48:22;22.75;;;13.65;;
76439;SDS011;65274;44.982;20.060;2024-02-28T05:50:48;31.05;;;14.85;;
76439;SDS011;65274;44.982;20.060;2024-02-28T05:53:14;26.00;;;13.82;;
76439;SDS011;65274;44.982;20.060;2024-02-28T05:55:40;30.88;;;15.00;;
76439;SDS011;65274;44.982;20.060;2024-02-28T05:58:06;35.67;;;19.23;;
76439;SDS011;65274;44.982;20.060;2024-02-28T06:00:33;38.03;;;20.15;;
76439;SDS011;65274;44.982;20.060;2024-02-28T06:02:59;26.92;;;14.70;;
76439;SDS011;65274;44.982;20.060;2024-02-28T06:05:25;28.73;;;15.13;;
76439;SDS011;65274;44.982;20.060;2024-02-28T06:07:51;25.80;;;15.23;;
76439;SDS011;65274;44.982;20.060;2024-02-28T06:10:18;26.38;;;14.18;;
76439;SDS011;65274;44.982;20.060;2024-02-28T06:12:46;32.92;;;19.00;;
76439;SDS011;65274;44.982;20.060;2024-02-28T06:15:12;34.55;;;18.88;;
76439;SDS011;65274;44.982;20.060;2024-02-28T06:17:38;33.22;;;16.73;;
76439;SDS011;65274;44.982;20.060;2024-02-28T06:20:04;27.45;;;15.73;;
76439;SDS011;65274;44.982;20.060;2024-02-28T06:22:31;27.13;;;16.60;;
76439;SDS011;65274;44.982;20.060;2024-02-28T06:24:57;31.63;;;19.75;;
76439;SDS011;65274;44.982;20.060;2024-02-28T06:27:23;29.33;;;17.35;;
76439;SDS011;65274;44.982;20.060;2024-02-28T06:29:51;32.40;;;18.45;;
76439;SDS011;65274;44.982;20.060;2024-02-28T06:32:28;30.88;;;15.80;;
76439;SDS011;65274;44.982;20.060;2024-02-28T08:41:28;25.15;;;11.20;;
76439;SDS011;65274;44.982;20.060;2024-02-28T08:44:02;18.90;;;9.80;;
76439;SDS011;65274;44.982;20.060;2024-02-28T09:12:56;16.95;;;8.77;;
76439;SDS011;65274;44.982;20.060;2024-02-28T09:15:36;12.15;;;9.05;;
76439;SDS011;65274;44.982;20.060;2024-02-28T10:06:16;11.48;;;8.38;;
76439;SDS011;65274;44.982;20.060;2024-02-28T10:08:42;16.17;;;8.80;;
76439;SDS011;65274;44.982;20.060;2024-02-28T10:11:12;16.45;;;9.45;;
76439;SDS011;65274;44.982;20.060;2024-02-28T10:13:42;20.52;;;10.23;;
76439;SDS011;65274;44.982;20.060;2024-02-28T10:16:08;16.02;;;8.55;;
76439;SDS011;65274;44.982;20.060;2024-02-28T10:18:34;12.57;;;8.20;;
76439;SDS011;65274;44.982;20.060;2024-02-28T10:21:01;14.80;;;8.10;;
76439;SDS011;65274;44.982;20.060;2024-02-28T10:23:28;14.77;;;9.43;;
76439;SDS011;65274;44.982;20.060;2024-02-28T10:25:54;12.75;;;7.65;;
76439;SDS011;65274;44.982;20.060;2024-02-28T10:28:21;11.80;;;8.13;;
76439;SDS011;65274;44.982;20.060;2024-02-28T10:30:47;13.68;;;9.30;;
76439;SDS011;65274;44.982;20.060;2024-02-28T10:33:13;15.13;;;9.57;;
76439;SDS011;65274;44.982;20.060;2024-02-28T10:35:40;12.95;;;8.30;;
76439;SDS011;65274;44.982;20.060;2024-02-28T10:38:07;12.18;;;7.85;;
76439;SDS011;65274;44.982;20.060;2024-02-28T10:40:35;10.57;;;7.90;;
76439;SDS011;65274;44.982;20.060;2024-02-28T10:43:02;16.75;;;7.32;;
76439;SDS011;65274;44.982;20.060;2024-02-28T10:45:32;12.13;;;7.93;;
76439;SDS011;65274;44.982;20.060;2024-02-28T10:48:02;11.02;;;6.95;;
76439;SDS011;65274;44.982;20.060;2024-02-28T10:50:28;14.95;;;7.25;;
76439;SDS011;65274;44.982;20.060;2024-02-28T10:52:55;13.60;;;7.57;;
76439;SDS011;65274;44.982;20.060;2024-02-28T10:55:27;15.40;;;8.00;;
76439;SDS011;65274;44.982;20.060;2024-02-28T10:58:17;16.70;;;7.55;;
76439;SDS011;65274;44.982;20.060;2024-02-28T11:03:12;12.90;;;7.55;;
76439;SDS011;65274;44.982;20.060;2024-02-28T11:05:40;14.38;;;7.20;;
76439;SDS011;65274;44.982;20.060;2024-02-28T11:08:10;16.02;;;8.55;;
76439;SDS011;65274;44.982;20.060;2024-02-28T11:10:40;9.02;;;7.13;;
76439;SDS011;65274;44.982;20.060;2024-02-28T11:13:20;14.65;;;8.20;;
76439;SDS011;65274;44.982;20.060;2024-02-28T11:15:46;12.27;;;7.25;;
76439;SDS011;65274;44.982;20.060;2024-02-28T11:18:12;10.70;;;6.88;;
76439;SDS011;65274;44.982;20.060;2024-02-28T11:20:39;15.57;;;7.32;;
76439;SDS011;65274;44.982;20.060;2024-02-28T11:23:08;13.40;;;7.57;;
76439;SDS011;65274;44.982;20.060;2024-02-28T11:25:35;16.95;;;10.32;;
76439;SDS011;65274;44.982;20.060;2024-02-28T11:28:01;14.75;;;7.65;;
76439;SDS011;65274;44.982;20.060;2024-02-28T11:30:27;12.93;;;6.47;;
76439;SDS011;65274;44.982;20.060;2024-02-28T11:32:56;13.70;;;7.30;;
76439;SDS011;65274;44.982;20.060;2024-02-28T11:35:24;14.80;;;7.22;;
76439;SDS011;65274;44.982;20.060;2024-02-28T11:37:50;12.18;;;6.82;;
76439;SDS011;65274;44.982;20.060;2024-02-28T11:40:18;14.38;;;6.80;;
76439;SDS011;65274;44.982;20.060;2024-02-28T11:42:45;11.63;;;6.65;;
76439;SDS011;65274;44.982;20.060;2024-02-28T11:45:11;10.10;;;6.75;;
76439;SDS011;65274;44.982;20.060;2024-02-28T11:47:37;14.48;;;7.05;;
76439;SDS011;65274;44.982;20.060;2024-02-28T11:50:04;11.82;;;6.90;;
76439;SDS011;65274;44.982;20.060;2024-02-28T11:52:30;15.10;;;7.40;;
76439;SDS011;65274;44.982;20.060;2024-02-28T11:57:23;11.50;;;6.45;;
76439;SDS011;65274;44.982;20.060;2024-02-28T11:59:49;12.15;;;7.00;;
76439;SDS011;65274;44.982;20.060;2024-02-28T12:02:16;10.80;;;6.72;;
76439;SDS011;65274;44.982;20.060;2024-02-28T12:04:43;8.85;;;6.47;;
76439;SDS011;65274;44.982;20.060;2024-02-28T12:12:01;10.88;;;6.22;;
76439;SDS011;65274;44.982;20.060;2024-02-28T12:14:31;12.70;;;6.43;;
76439;SDS011;65274;44.982;20.060;2024-02-28T12:16:58;7.97;;;5.90;;
76439;SDS011;65274;44.982;20.060;2024-02-28T12:21:50;13.63;;;7.05;;
76439;SDS011;65274;44.982;20.060;2024-02-28T12:24:16;8.52;;;6.60;;
76439;SDS011;65274;44.982;20.060;2024-02-28T12:26:42;12.15;;;6.22;;
76439;SDS011;65274;44.982;20.060;2024-02-28T12:29:08;9.57;;;6.60;;
76439;SDS011;65274;44.982;20.060;2024-02-28T12:31:35;17.48;;;9.88;;
76439;SDS011;65274;44.982;20.060;2024-02-28T12:34:02;9.52;;;6.57;;
76439;SDS011;65274;44.982;20.060;2024-02-28T12:36:31;12.30;;;6.80;;
76439;SDS011;65274;44.982;20.060;2024-02-28T12:41:25;10.90;;;6.78;;
76439;SDS011;65274;44.982;20.060;2024-02-28T12:43:51;10.63;;;6.78;;
76439;SDS011;65274;44.982;20.060;2024-02-28T12:46:17;13.13;;;7.25;;
76439;SDS011;65274;44.982;20.060;2024-02-28T12:48:43;14.05;;;6.82;;
76439;SDS011;65274;44.982;20.060;2024-02-28T12:51:13;11.60;;;6.00;;
76439;SDS011;65274;44.982;20.060;2024-02-28T12:53:46;9.88;;;6.63;;
76439;SDS011;65274;44.982;20.060;2024-02-28T12:56:14;8.98;;;6.68;;
76439;SDS011;65274;44.982;20.060;2024-02-28T12:58:40;10.93;;;5.75;;
76439;SDS011;65274;44.982;20.060;2024-02-28T13:01:06;10.05;;;7.43;;
76439;SDS011;65274;44.982;20.060;2024-02-28T13:03:34;10.00;;;5.85;;
76439;SDS011;65274;44.982;20.060;2024-02-28T13:06:00;12.05;;;6.93;;
76439;SDS011;65274;44.982;20.060;2024-02-28T13:08:26;13.95;;;6.60;;
76439;SDS011;65274;44.982;20.060;2024-02-28T13:10:52;9.75;;;6.22;;
76439;SDS011;65274;44.982;20.060;2024-02-28T13:13:18;15.93;;;7.47;;
76439;SDS011;65274;44.982;20.060;2024-02-28T13:15:44;12.70;;;7.30;;
76439;SDS011;65274;44.982;20.060;2024-02-28T13:18:10;14.07;;;7.35;;
76439;SDS011;65274;44.982;20.060;2024-02-28T13:20:36;11.80;;;7.35;;
76439;SDS011;65274;44.982;20.060;2024-02-28T13:23:03;20.90;;;9.93;;
76439;SDS011;65274;44.982;20.060;2024-02-28T13:25:30;17.38;;;9.40;;
76439;SDS011;65274;44.982;20.060;2024-02-28T13:27:56;16.25;;;7.40;;
76439;SDS011;65274;44.982;20.060;2024-02-28T13:30:22;16.65;;;8.73;;
76439;SDS011;65274;44.982;20.060;2024-02-28T13:32:48;18.85;;;8.23;;
76439;SDS011;65274;44.982;20.060;2024-02-28T13:35:14;18.98;;;9.77;;
76439;SDS011;65274;44.982;20.060;2024-02-28T13:37:40;22.15;;;10.45;;
76439;SDS011;65274;44.982;20.060;2024-02-28T13:40:07;17.25;;;7.82;;
76439;SDS011;65274;44.982;20.060;2024-02-28T13:42:35;14.43;;;9.40;;
76439;SDS011;65274;44.982;20.060;2024-02-28T13:45:03;21.42;;;9.55;;
76439;SDS011;65274;44.982;20.060;2024-02-28T13:47:32;21.00;;;11.85;;
76439;SDS011;65274;44.982;20.060;2024-02-28T13:49:58;21.88;;;12.88;;
76439;SDS011;65274;44.982;20.060;2024-02-28T13:52:24;17.00;;;9.93;;
76439;SDS011;65274;44.982;20.060;2024-02-28T13:54:50;17.63;;;10.07;;
76439;SDS011;65274;44.982;20.060;2024-02-28T13:57:17;15.70;;;8.45;;
76439;SDS011;65274;44.982;20.060;2024-02-28T13:59:43;13.93;;;8.52;;
76439;SDS011;65274;44.982;20.060;2024-02-28T14:02:14;16.02;;;8.70;;
76439;SDS011;65274;44.982;20.060;2024-02-28T14:04:40;15.75;;;8.00;;
76439;SDS011;65274;44.982;20.060;2024-02-28T14:07:08;19.48;;;8.45;;
76439;SDS011;65274;44.982;20.060;2024-02-28T14:09:35;23.67;;;9.40;;
76439;SDS011;65274;44.982;20.060;2024-02-28T14:12:01;14.35;;;8.95;;
76439;SDS011;65274;44.982;20.060;2024-02-28T14:14:27;13.63;;;8.93;;
76439;SDS011;65274;44.982;20.060;2024-02-28T14:16:53;21.15;;;9.65;;
76439;SDS011;65274;44.982;20.060;2024-02-28T14:19:19;15.20;;;8.63;;
76439;SDS011;65274;44.982;20.060;2024-02-28T14:21:45;17.63;;;8.73;;
76439;SDS011;65274;44.982;20.060;2024-02-28T14:24:11;16.48;;;8.27;;
76439;SDS011;65274;44.982;20.060;2024-02-28T14:26:37;20.33;;;8.23;;
76439;SDS011;65274;44.982;20.060;2024-02-28T14:29:04;10.25;;;7.40;;
76439;SDS011;65274;44.982;20.060;2024-02-28T14:31:30;13.93;;;7.93;;
76439;SDS011;65274;44.982;20.060;2024-02-28T14:33:56;13.68;;;8.38;;
76439;SDS011;65274;44.982;20.060;2024-02-28T14:36:22;17.27;;;8.68;;
76439;SDS011;65274;44.982;20.060;2024-02-28T14:38:50;18.92;;;8.50;;
76439;SDS011;65274;44.982;20.060;2024-02-28T14:41:16;17.88;;;9.85;;
76439;SDS011;65274;44.982;20.060;2024-02-28T14:43:42;16.27;;;8.18;;
76439;SDS011;65274;44.982;20.060;2024-02-28T14:46:10;13.52;;;10.20;;
76439;SDS011;65274;44.982;20.060;2024-02-28T14:48:42;16.17;;;9.32;;
76439;SDS011;65274;44.982;20.060;2024-02-28T16:04:21;13.50;;;8.32;;
76439;SDS011;65274;44.982;20.060;2024-02-28T16:23:17;26.88;;;13.88;;
76439;SDS011;65274;44.982;20.060;2024-02-28T21:19:04;20.55;;;11.30;;
76439;SDS011;65274;44.982;20.060;2024-02-28T21:21:31;22.02;;;11.80;;
76439;SDS011;65274;44.982;20.060;2024-02-28T21:23:59;23.88;;;12.02;;
76439;SDS011;65274;44.982;20.060;2024-02-28T21:26:28;28.17;;;13.80;;
76439;SDS011;65274;44.982;20.060;2024-02-28T21:29:01;24.42;;;12.38;;
76439;SDS011;65274;44.982;20.060;2024-02-28T21:31:29;24.73;;;15.55;;
76439;SDS011;65274;44.982;20.060;2024-02-28T21:33:58;69.65;;;40.28;;
76439;SDS011;65274;44.982;20.060;2024-02-28T21:36:25;32.83;;;20.67;;
76439;SDS011;65274;44.982;20.060;2024-02-28T21:38:52;25.25;;;16.05;;
76439;SDS011;65274;44.982;20.060;2024-02-28T21:41:19;27.25;;;12.77;;
76439;SDS011;65274;44.982;20.060;2024-02-28T21:43:49;27.42;;;14.00;;
76439;SDS011;65274;44.982;20.060;2024-02-28T21:46:17;40.35;;;15.20;;
76439;SDS011;65274;44.982;20.060;2024-02-28T21:48:45;48.33;;;33.20;;
76439;SDS011;65274;44.982;20.060;2024-02-28T21:51:15;32.83;;;19.58;;
76439;SDS011;65274;44.982;20.060;2024-02-28T21:53:42;45.67;;;28.02;;
76439;SDS011;65274;44.982;20.060;2024-02-28T21:56:08;37.83;;;23.20;;
76439;SDS011;65274;44.982;20.060;2024-02-28T21:58:35;22.15;;;15.90;;
76439;SDS011;65274;44.982;20.060;2024-02-28T22:01:04;30.45;;;16.55;;
76439;SDS011;65274;44.982;20.060;2024-02-28T22:03:32;29.67;;;17.55;;
76439;SDS011;65274;44.982;20.060;2024-02-28T22:06:02;44.08;;;35.97;;
76439;SDS011;65274;44.982;20.060;2024-02-28T22:08:30;26.98;;;16.33;;
76439;SDS011;65274;44.982;20.060;2024-02-28T22:10:57;30.33;;;15.93;;
76439;SDS011;65274;44.982;20.060;2024-02-28T22:13:25;26.15;;;16.25;;
76439;SDS011;65274;44.982;20.060;2024-02-28T22:15:53;27.10;;;20.23;;
76439;SDS011;65274;44.982;20.060;2024-02-28T22:18:20;25.45;;;13.85;;
76439;SDS011;65274;44.982;20.060;2024-02-28T22:20:47;22.35;;;13.05;;
76439;SDS011;65274;44.982;20.060;2024-02-28T22:23:14;34.33;;;20.60;;
76439;SDS011;65274;44.982;20.060;2024-02-28T22:25:41;41.42;;;26.42;;
76439;SDS011;65274;44.982;20.060;2024-02-28T22:28:08;26.75;;;16.40;;
76439;SDS011;65274;44.982;20.060;2024-02-28T22:30:34;23.75;;;13.98;;
76439;SDS011;65274;44.982;20.060;2024-02-28T22:33:00;23.25;;;12.07;;
76439;SDS011;65274;44.982;20.060;2024-02-28T22:35:26;26.63;;;13.25;;
76439;SDS011;65274;44.982;20.060;2024-02-28T22:37:52;26.05;;;11.95;;
76439;SDS011;65274;44.982;20.060;2024-02-28T22:40:18;23.75;;;12.27;;
76439;SDS011;65274;44.982;20.060;2024-02-28T22:42:45;24.70;;;12.13;;
76439;SDS011;65274;44.982;20.060;2024-02-28T22:45:11;27.95;;;13.45;;
76439;SDS011;65274;44.982;20.060;2024-02-28T22:47:38;20.90;;;11.77;;
76439;SDS011;65274;44.982;20.060;2024-02-28T22:50:05;26.75;;;13.80;;
76439;SDS011;65274;44.982;20.060;2024-02-28T22:52:31;20.60;;;11.00;;
76439;SDS011;65274;44.982;20.060;2024-02-28T22:54:57;18.08;;;10.27;;
76439;SDS011;65274;44.982;20.060;2024-02-28T22:57:23;16.05;;;10.43;;
76439;SDS011;65274;44.982;20.060;2024-02-28T22:59:49;19.77;;;10.90;;
76439;SDS011;65274;44.982;20.060;2024-02-28T23:02:16;23.35;;;11.65;;
76439;SDS011;65274;44.982;20.060;2024-02-28T23:04:42;18.23;;;10.95;;
76439;SDS011;65274;44.982;20.060;2024-02-28T23:07:08;22.98;;;11.55;;
76439;SDS011;65274;44.982;20.060;2024-02-28T23:09:34;25.85;;;12.45;;
76439;SDS011;65274;44.982;20.060;2024-02-28T23:12:01;21.90;;;13.20;;
76439;SDS011;65274;44.982;20.060;2024-02-28T23:14:28;20.17;;;12.50;;
76439;SDS011;65274;44.982;20.060;2024-02-28T23:16:54;28.92;;;12.63;;
76439;SDS011;65274;44.982;20.060;2024-02-28T23:19:21;21.08;;;10.20;;
76439;SDS011;65274;44.982;20.060;2024-02-28T23:21:47;20.65;;;11.23;;
76439;SDS011;65274;44.982;20.060;2024-02-28T23:24:14;22.02;;;11.52;;
76439;SDS011;65274;44.982;20.060;2024-02-28T23:26:40;17.15;;;10.30;;
76439;SDS011;65274;44.982;20.060;2024-02-28T23:29:07;21.88;;;10.50;;
76439;SDS011;65274;44.982;20.060;2024-02-28T23:31:33;16.58;;;9.93;;
76439;SDS011;65274;44.982;20.060;2024-02-28T23:33:59;17.52;;;10.40;;
76439;SDS011;65274;44.982;20.060;2024-02-28T23:36:25;19.77;;;11.18;;
76439;SDS011;65274;44.982;20.060;2024-02-28T23:38:52;13.38;;;9.68;;
76439;SDS011;65274;44.982;20.060;2024-02-28T23:41:18;16.38;;;9.82;;
76439;SDS011;65274;44.982;20.060;2024-02-28T23:43:44;22.83;;;12.40;;
76439;SDS011;65274;44.982;20.060;2024-02-28T23:46:11;18.15;;;9.55;;
76439;SDS011;65274;44.982;20.060;2024-02-28T23:48:37;19.55;;;10.25;;
76439;SDS011;65274;44.982;20.060;2024-02-28T23:51:03;18.98;;;9.85;;
76439;SDS011;65274;44.982;20.060;2024-02-28T23:53:29;25.02;;;12.25;;
76439;SDS011;65274;44.982;20.060;2024-02-28T23:55:57;28.80;;;11.25;;
76439;SDS011;65274;44.982;20.060;2024-02-28T23:58:25;21.77;;;12.68;;
